sensor_id;sensor_type;location;lat;lon;timestamp;P1;durP1;ratioP1;P2;durP2;ratioP2
68432;SDS011;55412;51.350;17.056;2023-04-24T00:00:21;6.97;;;3.00;;
68432;SDS011;55412;51.350;17.056;2023-04-24T00:02:47;7.32;;;3.03;;
68432;SDS011;55412;51.350;17.056;2023-04-24T00:05:14;7.23;;;3.00;;
68432;SDS011;55412;51.350;17.056;2023-04-24T00:07:42;7.55;;;2.80;;
68432;SDS011;55412;51.350;17.056;2023-04-24T00:10:10;8.10;;;3.03;;
68432;SDS011;55412;51.350;17.056;2023-04-24T00:12:37;6.20;;;3.05;;
68432;SDS011;55412;51.350;17.056;2023-04-24T00:15:04;7.63;;;3.63;;
68432;SDS011;55412;51.350;17.056;2023-04-24T00:17:30;6.90;;;3.20;;
68432;SDS011;55412;51.350;17.056;2023-04-24T00:19:56;8.60;;;3.35;;
68432;SDS011;55412;51.350;17.056;2023-04-24T00:22:28;6.70;;;3.05;;
68432;SDS011;55412;51.350;17.056;2023-04-24T00:24:54;7.90;;;2.75;;
68432;SDS011;55412;51.350;17.056;2023-04-24T00:27:20;9.43;;;3.17;;
68432;SDS011;55412;51.350;17.056;2023-04-24T00:29:46;8.17;;;3.70;;
68432;SDS011;55412;51.350;17.056;2023-04-24T00:32:12;7.97;;;3.50;;
68432;SDS011;55412;51.350;17.056;2023-04-24T00:34:39;7.68;;;3.63;;
68432;SDS011;55412;51.350;17.056;2023-04-24T00:37:05;7.38;;;3.47;;
68432;SDS011;55412;51.350;17.056;2023-04-24T00:39:32;10.88;;;4.47;;
68432;SDS011;55412;51.350;17.056;2023-04-24T00:41:58;8.07;;;4.03;;
68432;SDS011;55412;51.350;17.056;2023-04-24T00:44:24;7.13;;;3.90;;
68432;SDS011;55412;51.350;17.056;2023-04-24T00:46:50;9.02;;;3.80;;
68432;SDS011;55412;51.350;17.056;2023-04-24T00:49:19;8.20;;;4.65;;
68432;SDS011;55412;51.350;17.056;2023-04-24T00:51:46;10.65;;;4.35;;
68432;SDS011;55412;51.350;17.056;2023-04-24T00:54:14;6.70;;;3.00;;
68432;SDS011;55412;51.350;17.056;2023-04-24T00:56:41;8.55;;;3.90;;
68432;SDS011;55412;51.350;17.056;2023-04-24T00:59:08;8.88;;;4.32;;
68432;SDS011;55412;51.350;17.056;2023-04-24T01:01:34;7.95;;;4.10;;
68432;SDS011;55412;51.350;17.056;2023-04-24T01:04:01;10.73;;;4.47;;
68432;SDS011;55412;51.350;17.056;2023-04-24T01:06:28;9.43;;;4.57;;
68432;SDS011;55412;51.350;17.056;2023-04-24T01:08:56;8.45;;;4.40;;
68432;SDS011;55412;51.350;17.056;2023-04-24T01:11:24;7.72;;;4.18;;
68432;SDS011;55412;51.350;17.056;2023-04-24T01:13:51;12.52;;;4.28;;
68432;SDS011;55412;51.350;17.056;2023-04-24T01:16:18;10.75;;;4.45;;
68432;SDS011;55412;51.350;17.056;2023-04-24T01:18:47;10.13;;;4.37;;
68432;SDS011;55412;51.350;17.056;2023-04-24T01:21:14;10.10;;;4.80;;
68432;SDS011;55412;51.350;17.056;2023-04-24T01:23:44;10.55;;;5.05;;
68432;SDS011;55412;51.350;17.056;2023-04-24T01:26:11;9.70;;;4.65;;
68432;SDS011;55412;51.350;17.056;2023-04-24T01:28:41;10.25;;;4.18;;
68432;SDS011;55412;51.350;17.056;2023-04-24T01:31:08;12.20;;;4.30;;
68432;SDS011;55412;51.350;17.056;2023-04-24T01:33:34;8.25;;;4.97;;
68432;SDS011;55412;51.350;17.056;2023-04-24T01:36:00;9.35;;;4.88;;
68432;SDS011;55412;51.350;17.056;2023-04-24T01:38:26;8.73;;;4.28;;
68432;SDS011;55412;51.350;17.056;2023-04-24T01:40:53;10.30;;;4.90;;
68432;SDS011;55412;51.350;17.056;2023-04-24T01:43:19;14.80;;;4.60;;
68432;SDS011;55412;51.350;17.056;2023-04-24T01:45:45;10.98;;;4.57;;
68432;SDS011;55412;51.350;17.056;2023-04-24T01:48:12;11.13;;;5.72;;
68432;SDS011;55412;51.350;17.056;2023-04-24T01:50:38;10.98;;;4.97;;
68432;SDS011;55412;51.350;17.056;2023-04-24T01:53:04;15.48;;;5.28;;
68432;SDS011;55412;51.350;17.056;2023-04-24T01:55:31;9.03;;;4.47;;
68432;SDS011;55412;51.350;17.056;2023-04-24T01:57:57;13.07;;;4.97;;
68432;SDS011;55412;51.350;17.056;2023-04-24T02:00:25;12.65;;;4.85;;
68432;SDS011;55412;51.350;17.056;2023-04-24T02:02:51;10.23;;;5.97;;
68432;SDS011;55412;51.350;17.056;2023-04-24T02:05:17;10.27;;;5.43;;
68432;SDS011;55412;51.350;17.056;2023-04-24T02:07:43;11.00;;;5.60;;
68432;SDS011;55412;51.350;17.056;2023-04-24T02:10:09;9.70;;;5.00;;
68432;SDS011;55412;51.350;17.056;2023-04-24T02:12:36;11.27;;;5.63;;
68432;SDS011;55412;51.350;17.056;2023-04-24T02:15:02;9.73;;;5.13;;
68432;SDS011;55412;51.350;17.056;2023-04-24T02:17:29;15.80;;;6.15;;
68432;SDS011;55412;51.350;17.056;2023-04-24T02:19:55;11.40;;;5.87;;
68432;SDS011;55412;51.350;17.056;2023-04-24T02:22:22;12.25;;;6.13;;
68432;SDS011;55412;51.350;17.056;2023-04-24T02:24:48;11.95;;;5.68;;
68432;SDS011;55412;51.350;17.056;2023-04-24T02:27:14;10.32;;;5.70;;
68432;SDS011;55412;51.350;17.056;2023-04-24T02:29:40;12.80;;;5.25;;
68432;SDS011;55412;51.350;17.056;2023-04-24T02:32:06;12.13;;;6.47;;
68432;SDS011;55412;51.350;17.056;2023-04-24T02:34:34;11.70;;;5.97;;
68432;SDS011;55412;51.350;17.056;2023-04-24T02:37:00;12.38;;;6.40;;
68432;SDS011;55412;51.350;17.056;2023-04-24T02:39:26;15.98;;;6.10;;
68432;SDS011;55412;51.350;17.056;2023-04-24T02:41:52;11.63;;;5.10;;
68432;SDS011;55412;51.350;17.056;2023-04-24T02:44:18;10.13;;;5.57;;
68432;SDS011;55412;51.350;17.056;2023-04-24T02:46:44;11.85;;;5.70;;
68432;SDS011;55412;51.350;17.056;2023-04-24T02:49:10;11.75;;;5.93;;
68432;SDS011;55412;51.350;17.056;2023-04-24T02:51:37;10.32;;;6.03;;
68432;SDS011;55412;51.350;17.056;2023-04-24T02:54:06;11.40;;;5.57;;
68432;SDS011;55412;51.350;17.056;2023-04-24T02:56:34;14.13;;;6.97;;
68432;SDS011;55412;51.350;17.056;2023-04-24T02:59:01;13.48;;;5.47;;
68432;SDS011;55412;51.350;17.056;2023-04-24T03:01:27;13.32;;;6.95;;
68432;SDS011;55412;51.350;17.056;2023-04-24T03:03:54;11.52;;;5.88;;
68432;SDS011;55412;51.350;17.056;2023-04-24T03:06:19;11.03;;;5.80;;
68432;SDS011;55412;51.350;17.056;2023-04-24T03:08:46;12.05;;;6.32;;
68432;SDS011;55412;51.350;17.056;2023-04-24T03:11:13;10.20;;;5.60;;
68432;SDS011;55412;51.350;17.056;2023-04-24T03:13:39;11.25;;;5.65;;
68432;SDS011;55412;51.350;17.056;2023-04-24T03:16:05;12.60;;;6.55;;
68432;SDS011;55412;51.350;17.056;2023-04-24T03:18:31;12.60;;;5.70;;
68432;SDS011;55412;51.350;17.056;2023-04-24T03:20:57;10.60;;;5.07;;
68432;SDS011;55412;51.350;17.056;2023-04-24T03:23:23;11.18;;;4.43;;
68432;SDS011;55412;51.350;17.056;2023-04-24T03:25:49;10.57;;;5.00;;
68432;SDS011;55412;51.350;17.056;2023-04-24T03:28:16;10.77;;;5.50;;
68432;SDS011;55412;51.350;17.056;2023-04-24T03:30:42;10.33;;;4.63;;
68432;SDS011;55412;51.350;17.056;2023-04-24T03:33:08;7.72;;;3.75;;
68432;SDS011;55412;51.350;17.056;2023-04-24T03:35:34;6.95;;;3.88;;
68432;SDS011;55412;51.350;17.056;2023-04-24T03:38:01;12.82;;;4.85;;
68432;SDS011;55412;51.350;17.056;2023-04-24T03:40:29;9.23;;;5.15;;
68432;SDS011;55412;51.350;17.056;2023-04-24T03:42:55;10.93;;;5.10;;
68432;SDS011;55412;51.350;17.056;2023-04-24T03:45:21;10.77;;;4.78;;
68432;SDS011;55412;51.350;17.056;2023-04-24T03:47:47;12.13;;;4.88;;
68432;SDS011;55412;51.350;17.056;2023-04-24T03:50:14;9.13;;;4.43;;
68432;SDS011;55412;51.350;17.056;2023-04-24T03:52:40;8.13;;;4.38;;
68432;SDS011;55412;51.350;17.056;2023-04-24T03:55:06;10.47;;;4.47;;
68432;SDS011;55412;51.350;17.056;2023-04-24T03:57:32;7.22;;;3.75;;
68432;SDS011;55412;51.350;17.056;2023-04-24T03:59:58;9.20;;;4.68;;
68432;SDS011;55412;51.350;17.056;2023-04-24T04:02:24;9.48;;;4.78;;
68432;SDS011;55412;51.350;17.056;2023-04-24T04:04:50;12.90;;;5.50;;
68432;SDS011;55412;51.350;17.056;2023-04-24T04:07:16;8.40;;;4.85;;
68432;SDS011;55412;51.350;17.056;2023-04-24T04:09:42;9.95;;;5.78;;
68432;SDS011;55412;51.350;17.056;2023-04-24T04:12:08;10.65;;;5.28;;
68432;SDS011;55412;51.350;17.056;2023-04-24T04:14:34;10.93;;;6.25;;
68432;SDS011;55412;51.350;17.056;2023-04-24T04:17:00;10.63;;;5.23;;
68432;SDS011;55412;51.350;17.056;2023-04-24T04:19:26;11.82;;;4.63;;
68432;SDS011;55412;51.350;17.056;2023-04-24T04:21:52;9.60;;;5.10;;
68432;SDS011;55412;51.350;17.056;2023-04-24T04:24:21;10.57;;;5.47;;
68432;SDS011;55412;51.350;17.056;2023-04-24T04:26:47;10.30;;;4.50;;
68432;SDS011;55412;51.350;17.056;2023-04-24T04:29:16;12.80;;;5.13;;
68432;SDS011;55412;51.350;17.056;2023-04-24T04:31:45;11.82;;;5.05;;
68432;SDS011;55412;51.350;17.056;2023-04-24T04:34:11;11.18;;;5.28;;
68432;SDS011;55412;51.350;17.056;2023-04-24T04:36:39;12.70;;;5.28;;
68432;SDS011;55412;51.350;17.056;2023-04-24T04:39:06;10.40;;;5.30;;
68432;SDS011;55412;51.350;17.056;2023-04-24T04:41:32;12.37;;;4.10;;
68432;SDS011;55412;51.350;17.056;2023-04-24T04:44:00;9.25;;;5.43;;
68432;SDS011;55412;51.350;17.056;2023-04-24T04:46:29;11.80;;;5.00;;
68432;SDS011;55412;51.350;17.056;2023-04-24T04:48:59;9.48;;;5.32;;
68432;SDS011;55412;51.350;17.056;2023-04-24T04:51:28;10.48;;;5.13;;
68432;SDS011;55412;51.350;17.056;2023-04-24T04:53:55;10.33;;;4.73;;
68432;SDS011;55412;51.350;17.056;2023-04-24T04:56:21;9.57;;;5.28;;
68432;SDS011;55412;51.350;17.056;2023-04-24T04:58:47;14.43;;;5.03;;
68432;SDS011;55412;51.350;17.056;2023-04-24T05:01:13;11.82;;;4.45;;
68432;SDS011;55412;51.350;17.056;2023-04-24T05:03:39;14.48;;;5.13;;
68432;SDS011;55412;51.350;17.056;2023-04-24T05:06:05;11.53;;;5.20;;
68432;SDS011;55412;51.350;17.056;2023-04-24T05:08:32;8.95;;;4.53;;
68432;SDS011;55412;51.350;17.056;2023-04-24T05:10:57;11.00;;;4.63;;
68432;SDS011;55412;51.350;17.056;2023-04-24T05:13:24;15.57;;;5.05;;
68432;SDS011;55412;51.350;17.056;2023-04-24T05:15:50;11.57;;;6.00;;
68432;SDS011;55412;51.350;17.056;2023-04-24T05:18:16;12.87;;;5.30;;
68432;SDS011;55412;51.350;17.056;2023-04-24T05:20:42;12.13;;;4.70;;
68432;SDS011;55412;51.350;17.056;2023-04-24T05:23:09;10.05;;;5.65;;
68432;SDS011;55412;51.350;17.056;2023-04-24T05:25:35;11.82;;;5.57;;
68432;SDS011;55412;51.350;17.056;2023-04-24T05:28:01;12.88;;;5.93;;
68432;SDS011;55412;51.350;17.056;2023-04-24T05:30:27;13.27;;;5.37;;
68432;SDS011;55412;51.350;17.056;2023-04-24T05:32:53;11.82;;;6.68;;
68432;SDS011;55412;51.350;17.056;2023-04-24T05:35:19;11.98;;;6.25;;
68432;SDS011;55412;51.350;17.056;2023-04-24T05:37:46;10.35;;;5.68;;
68432;SDS011;55412;51.350;17.056;2023-04-24T05:40:12;12.02;;;5.78;;
68432;SDS011;55412;51.350;17.056;2023-04-24T05:42:39;10.87;;;5.40;;
68432;SDS011;55412;51.350;17.056;2023-04-24T05:45:05;11.23;;;5.38;;
68432;SDS011;55412;51.350;17.056;2023-04-24T05:47:32;11.07;;;5.28;;
68432;SDS011;55412;51.350;17.056;2023-04-24T05:49:58;10.38;;;4.70;;
68432;SDS011;55412;51.350;17.056;2023-04-24T05:52:24;11.55;;;5.35;;
68432;SDS011;55412;51.350;17.056;2023-04-24T05:54:50;10.23;;;5.10;;
68432;SDS011;55412;51.350;17.056;2023-04-24T05:57:16;9.25;;;4.70;;
68432;SDS011;55412;51.350;17.056;2023-04-24T05:59:42;9.98;;;4.38;;
68432;SDS011;55412;51.350;17.056;2023-04-24T06:02:08;8.55;;;4.57;;
68432;SDS011;55412;51.350;17.056;2023-04-24T06:04:34;10.10;;;4.75;;
68432;SDS011;55412;51.350;17.056;2023-04-24T06:07:00;11.77;;;4.87;;
68432;SDS011;55412;51.350;17.056;2023-04-24T06:09:27;10.98;;;4.85;;
68432;SDS011;55412;51.350;17.056;2023-04-24T06:11:53;11.77;;;5.43;;
68432;SDS011;55412;51.350;17.056;2023-04-24T06:14:19;11.07;;;4.53;;
68432;SDS011;55412;51.350;17.056;2023-04-24T06:16:46;9.67;;;4.73;;
68432;SDS011;55412;51.350;17.056;2023-04-24T06:19:12;9.40;;;3.72;;
68432;SDS011;55412;51.350;17.056;2023-04-24T06:21:38;10.90;;;5.45;;
68432;SDS011;55412;51.350;17.056;2023-04-24T06:24:04;10.55;;;5.00;;
68432;SDS011;55412;51.350;17.056;2023-04-24T06:26:30;8.98;;;5.20;;
68432;SDS011;55412;51.350;17.056;2023-04-24T06:28:56;8.63;;;4.33;;
68432;SDS011;55412;51.350;17.056;2023-04-24T06:31:24;10.18;;;5.43;;
68432;SDS011;55412;51.350;17.056;2023-04-24T06:33:50;11.52;;;4.93;;
68432;SDS011;55412;51.350;17.056;2023-04-24T06:36:16;13.40;;;4.55;;
68432;SDS011;55412;51.350;17.056;2023-04-24T06:38:42;8.93;;;4.78;;
68432;SDS011;55412;51.350;17.056;2023-04-24T06:41:09;9.40;;;5.07;;
68432;SDS011;55412;51.350;17.056;2023-04-24T06:43:35;11.60;;;4.97;;
68432;SDS011;55412;51.350;17.056;2023-04-24T06:46:01;9.75;;;4.70;;
68432;SDS011;55412;51.350;17.056;2023-04-24T06:48:28;11.48;;;4.45;;
68432;SDS011;55412;51.350;17.056;2023-04-24T06:50:54;10.82;;;4.55;;
68432;SDS011;55412;51.350;17.056;2023-04-24T06:53:20;9.27;;;4.07;;
68432;SDS011;55412;51.350;17.056;2023-04-24T06:55:46;10.80;;;4.47;;
68432;SDS011;55412;51.350;17.056;2023-04-24T06:58:13;7.63;;;3.33;;
68432;SDS011;55412;51.350;17.056;2023-04-24T07:00:40;10.98;;;4.43;;
68432;SDS011;55412;51.350;17.056;2023-04-24T07:03:06;10.25;;;4.85;;
68432;SDS011;55412;51.350;17.056;2023-04-24T07:05:32;10.13;;;4.17;;
68432;SDS011;55412;51.350;17.056;2023-04-24T07:08:00;7.55;;;3.42;;
68432;SDS011;55412;51.350;17.056;2023-04-24T07:10:27;7.30;;;3.80;;
68432;SDS011;55412;51.350;17.056;2023-04-24T07:12:53;7.20;;;3.15;;
68432;SDS011;55412;51.350;17.056;2023-04-24T07:15:21;5.57;;;2.53;;
68432;SDS011;55412;51.350;17.056;2023-04-24T07:17:48;8.90;;;2.87;;
68432;SDS011;55412;51.350;17.056;2023-04-24T07:20:15;7.60;;;3.42;;
68432;SDS011;55412;51.350;17.056;2023-04-24T07:22:41;8.40;;;3.10;;
68432;SDS011;55412;51.350;17.056;2023-04-24T07:25:08;7.53;;;3.22;;
68432;SDS011;55412;51.350;17.056;2023-04-24T07:27:34;7.43;;;3.40;;
68432;SDS011;55412;51.350;17.056;2023-04-24T07:30:01;8.23;;;3.03;;
68432;SDS011;55412;51.350;17.056;2023-04-24T07:32:29;6.85;;;3.25;;
68432;SDS011;55412;51.350;17.056;2023-04-24T07:34:55;10.13;;;3.40;;
68432;SDS011;55412;51.350;17.056;2023-04-24T07:37:22;8.90;;;3.40;;
68432;SDS011;55412;51.350;17.056;2023-04-24T07:39:48;6.38;;;2.75;;
68432;SDS011;55412;51.350;17.056;2023-04-24T07:42:15;9.80;;;3.17;;
68432;SDS011;55412;51.350;17.056;2023-04-24T07:44:41;7.22;;;3.08;;
68432;SDS011;55412;51.350;17.056;2023-04-24T07:47:07;9.27;;;3.20;;
68432;SDS011;55412;51.350;17.056;2023-04-24T07:49:33;6.80;;;3.03;;
68432;SDS011;55412;51.350;17.056;2023-04-24T07:52:00;6.18;;;3.00;;
68432;SDS011;55412;51.350;17.056;2023-04-24T07:54:27;8.07;;;4.13;;
68432;SDS011;55412;51.350;17.056;2023-04-24T07:56:54;7.25;;;3.28;;
68432;SDS011;55412;51.350;17.056;2023-04-24T07:59:20;6.47;;;3.00;;
68432;SDS011;55412;51.350;17.056;2023-04-24T08:01:46;6.65;;;3.13;;
68432;SDS011;55412;51.350;17.056;2023-04-24T08:04:12;7.40;;;3.30;;
68432;SDS011;55412;51.350;17.056;2023-04-24T08:06:38;5.27;;;3.13;;
68432;SDS011;55412;51.350;17.056;2023-04-24T08:09:04;6.00;;;2.78;;
68432;SDS011;55412;51.350;17.056;2023-04-24T08:11:31;6.65;;;2.55;;
68432;SDS011;55412;51.350;17.056;2023-04-24T08:13:57;5.97;;;2.25;;
68432;SDS011;55412;51.350;17.056;2023-04-24T08:16:23;5.63;;;2.28;;
68432;SDS011;55412;51.350;17.056;2023-04-24T08:18:50;5.13;;;2.60;;
68432;SDS011;55412;51.350;17.056;2023-04-24T08:21:16;5.55;;;3.03;;
68432;SDS011;55412;51.350;17.056;2023-04-24T08:23:44;8.95;;;2.95;;
68432;SDS011;55412;51.350;17.056;2023-04-24T08:26:11;4.82;;;2.75;;
68432;SDS011;55412;51.350;17.056;2023-04-24T08:28:38;4.65;;;2.38;;
68432;SDS011;55412;51.350;17.056;2023-04-24T08:31:04;9.20;;;3.27;;
68432;SDS011;55412;51.350;17.056;2023-04-24T08:33:30;6.10;;;2.92;;
68432;SDS011;55412;51.350;17.056;2023-04-24T08:36:03;5.82;;;2.85;;
68432;SDS011;55412;51.350;17.056;2023-04-24T08:38:30;6.35;;;3.00;;
68432;SDS011;55412;51.350;17.056;2023-04-24T08:40:57;6.22;;;2.38;;
68432;SDS011;55412;51.350;17.056;2023-04-24T08:43:25;5.40;;;2.60;;
68432;SDS011;55412;51.350;17.056;2023-04-24T08:45:52;5.75;;;2.83;;
68432;SDS011;55412;51.350;17.056;2023-04-24T08:48:24;5.43;;;2.28;;
68432;SDS011;55412;51.350;17.056;2023-04-24T08:50:52;5.05;;;2.60;;
68432;SDS011;55412;51.350;17.056;2023-04-24T08:53:18;5.55;;;2.28;;
68432;SDS011;55412;51.350;17.056;2023-04-24T08:55:46;5.80;;;2.90;;
68432;SDS011;55412;51.350;17.056;2023-04-24T08:58:14;6.72;;;2.70;;
68432;SDS011;55412;51.350;17.056;2023-04-24T09:00:44;5.28;;;2.67;;
68432;SDS011;55412;51.350;17.056;2023-04-24T09:03:15;5.03;;;1.90;;
68432;SDS011;55412;51.350;17.056;2023-04-24T09:05:42;8.43;;;2.75;;
68432;SDS011;55412;51.350;17.056;2023-04-24T09:08:10;4.97;;;1.77;;
68432;SDS011;55412;51.350;17.056;2023-04-24T09:10:39;8.25;;;2.97;;
68432;SDS011;55412;51.350;17.056;2023-04-24T09:13:06;5.57;;;2.30;;
68432;SDS011;55412;51.350;17.056;2023-04-24T09:15:34;6.32;;;2.10;;
68432;SDS011;55412;51.350;17.056;2023-04-24T09:18:01;5.72;;;2.35;;
68432;SDS011;55412;51.350;17.056;2023-04-24T09:20:28;5.27;;;2.43;;
68432;SDS011;55412;51.350;17.056;2023-04-24T09:22:54;5.15;;;2.22;;
68432;SDS011;55412;51.350;17.056;2023-04-24T09:25:22;5.00;;;2.30;;
68432;SDS011;55412;51.350;17.056;2023-04-24T09:27:59;4.60;;;2.40;;
68432;SDS011;55412;51.350;17.056;2023-04-24T09:30:29;5.40;;;2.53;;
68432;SDS011;55412;51.350;17.056;2023-04-24T09:35:48;5.95;;;2.50;;
68432;SDS011;55412;51.350;17.056;2023-04-24T09:38:15;6.30;;;2.75;;
68432;SDS011;55412;51.350;17.056;2023-04-24T09:40:42;5.95;;;3.33;;
68432;SDS011;55412;51.350;17.056;2023-04-24T09:43:10;6.43;;;2.80;;
68432;SDS011;55412;51.350;17.056;2023-04-24T09:45:37;6.27;;;3.10;;
68432;SDS011;55412;51.350;17.056;2023-04-24T09:48:04;6.70;;;2.72;;
68432;SDS011;55412;51.350;17.056;2023-04-24T09:50:35;6.32;;;2.90;;
68432;SDS011;55412;51.350;17.056;2023-04-24T09:53:01;6.10;;;2.80;;
68432;SDS011;55412;51.350;17.056;2023-04-24T09:55:29;7.30;;;3.17;;
68432;SDS011;55412;51.350;17.056;2023-04-24T09:57:56;6.27;;;2.20;;
68432;SDS011;55412;51.350;17.056;2023-04-24T10:00:29;7.55;;;2.67;;
68432;SDS011;55412;51.350;17.056;2023-04-24T10:02:57;6.18;;;2.67;;
68432;SDS011;55412;51.350;17.056;2023-04-24T10:08:03;6.53;;;2.75;;
68432;SDS011;55412;51.350;17.056;2023-04-24T10:10:36;5.43;;;3.23;;
68432;SDS011;55412;51.350;17.056;2023-04-24T10:13:12;5.70;;;2.38;;
68432;SDS011;55412;51.350;17.056;2023-04-24T10:15:40;6.32;;;2.30;;
68432;SDS011;55412;51.350;17.056;2023-04-24T10:18:07;5.53;;;2.63;;
68432;SDS011;55412;51.350;17.056;2023-04-24T10:20:35;4.38;;;2.28;;
68432;SDS011;55412;51.350;17.056;2023-04-24T10:23:05;5.10;;;2.40;;
68432;SDS011;55412;51.350;17.056;2023-04-24T10:25:32;6.50;;;2.45;;
68432;SDS011;55412;51.350;17.056;2023-04-24T10:28:00;6.45;;;2.53;;
68432;SDS011;55412;51.350;17.056;2023-04-24T10:30:37;7.60;;;3.05;;
68432;SDS011;55412;51.350;17.056;2023-04-24T10:33:08;6.40;;;2.70;;
68432;SDS011;55412;51.350;17.056;2023-04-24T10:35:36;6.80;;;3.00;;
68432;SDS011;55412;51.350;17.056;2023-04-24T10:38:14;6.03;;;3.20;;
68432;SDS011;55412;51.350;17.056;2023-04-24T10:40:49;5.75;;;2.53;;
68432;SDS011;55412;51.350;17.056;2023-04-24T10:43:16;5.55;;;2.83;;
68432;SDS011;55412;51.350;17.056;2023-04-24T10:45:59;7.75;;;3.40;;
68432;SDS011;55412;51.350;17.056;2023-04-24T10:48:31;6.33;;;2.73;;
68432;SDS011;55412;51.350;17.056;2023-04-24T10:50:58;6.85;;;2.72;;
68432;SDS011;55412;51.350;17.056;2023-04-24T10:53:27;5.70;;;2.67;;
68432;SDS011;55412;51.350;17.056;2023-04-24T10:55:58;4.90;;;2.40;;
68432;SDS011;55412;51.350;17.056;2023-04-24T10:58:41;4.63;;;2.60;;
68432;SDS011;55412;51.350;17.056;2023-04-24T11:01:23;5.57;;;2.50;;
68432;SDS011;55412;51.350;17.056;2023-04-24T11:03:56;4.97;;;2.55;;
68432;SDS011;55412;51.350;17.056;2023-04-24T11:06:31;5.28;;;2.47;;
68432;SDS011;55412;51.350;17.056;2023-04-24T11:09:05;6.95;;;3.28;;
68432;SDS011;55412;51.350;17.056;2023-04-24T11:11:35;7.63;;;3.13;;
68432;SDS011;55412;51.350;17.056;2023-04-24T11:14:05;8.00;;;2.80;;
68432;SDS011;55412;51.350;17.056;2023-04-24T11:16:34;7.15;;;2.97;;
68432;SDS011;55412;51.350;17.056;2023-04-24T11:21:41;5.82;;;2.33;;
68432;SDS011;55412;51.350;17.056;2023-04-24T11:24:24;5.93;;;2.88;;
68432;SDS011;55412;51.350;17.056;2023-04-24T11:27:12;5.50;;;2.90;;
68432;SDS011;55412;51.350;17.056;2023-04-24T11:32:25;4.85;;;2.40;;
68432;SDS011;55412;51.350;17.056;2023-04-24T11:37:41;6.97;;;2.90;;
68432;SDS011;55412;51.350;17.056;2023-04-24T11:40:11;6.60;;;3.27;;
68432;SDS011;55412;51.350;17.056;2023-04-24T11:42:41;4.30;;;1.80;;
68432;SDS011;55412;51.350;17.056;2023-04-24T11:45:47;4.88;;;2.05;;
68432;SDS011;55412;51.350;17.056;2023-04-24T11:48:02;4.18;;;1.80;;
68432;SDS011;55412;51.350;17.056;2023-04-24T11:50:29;5.30;;;2.33;;
68432;SDS011;55412;51.350;17.056;2023-04-24T11:52:55;8.10;;;2.27;;
68432;SDS011;55412;51.350;17.056;2023-04-24T11:57:52;5.13;;;1.90;;
68432;SDS011;55412;51.350;17.056;2023-04-24T12:00:30;4.95;;;2.03;;
68432;SDS011;55412;51.350;17.056;2023-04-24T12:03:04;5.90;;;2.22;;
68432;SDS011;55412;51.350;17.056;2023-04-24T12:05:34;6.23;;;2.37;;
68432;SDS011;55412;51.350;17.056;2023-04-24T12:08:00;6.25;;;2.13;;
68432;SDS011;55412;51.350;17.056;2023-04-24T12:10:27;4.53;;;2.10;;
68432;SDS011;55412;51.350;17.056;2023-04-24T12:12:56;4.57;;;1.92;;
68432;SDS011;55412;51.350;17.056;2023-04-24T12:15:23;6.15;;;2.35;;
68432;SDS011;55412;51.350;17.056;2023-04-24T12:17:50;5.77;;;2.67;;
68432;SDS011;55412;51.350;17.056;2023-04-24T12:20:23;7.35;;;2.40;;
68432;SDS011;55412;51.350;17.056;2023-04-24T12:22:54;7.38;;;2.83;;
68432;SDS011;55412;51.350;17.056;2023-04-24T12:25:23;5.53;;;2.92;;
68432;SDS011;55412;51.350;17.056;2023-04-24T12:30:47;6.37;;;3.03;;
68432;SDS011;55412;51.350;17.056;2023-04-24T12:33:20;12.50;;;2.97;;
68432;SDS011;55412;51.350;17.056;2023-04-24T12:35:47;5.85;;;2.55;;
68432;SDS011;55412;51.350;17.056;2023-04-24T12:38:21;6.03;;;2.80;;
68432;SDS011;55412;51.350;17.056;2023-04-24T12:41:00;5.13;;;2.40;;
68432;SDS011;55412;51.350;17.056;2023-04-24T12:43:35;5.87;;;2.50;;
68432;SDS011;55412;51.350;17.056;2023-04-24T12:46:02;6.43;;;3.15;;
68432;SDS011;55412;51.350;17.056;2023-04-24T12:48:29;7.15;;;2.63;;
68432;SDS011;55412;51.350;17.056;2023-04-24T12:50:57;6.95;;;3.50;;
68432;SDS011;55412;51.350;17.056;2023-04-24T12:53:26;6.40;;;3.40;;
68432;SDS011;55412;51.350;17.056;2023-04-24T12:55:54;6.87;;;3.70;;
68432;SDS011;55412;51.350;17.056;2023-04-24T12:58:21;6.68;;;3.35;;
68432;SDS011;55412;51.350;17.056;2023-04-24T13:00:47;8.70;;;2.60;;
68432;SDS011;55412;51.350;17.056;2023-04-24T13:03:14;7.50;;;3.20;;
68432;SDS011;55412;51.350;17.056;2023-04-24T13:05:41;8.02;;;3.90;;
68432;SDS011;55412;51.350;17.056;2023-04-24T13:08:08;5.77;;;3.23;;
68432;SDS011;55412;51.350;17.056;2023-04-24T13:10:35;6.70;;;2.28;;
68432;SDS011;55412;51.350;17.056;2023-04-24T13:13:01;5.35;;;2.28;;
68432;SDS011;55412;51.350;17.056;2023-04-24T13:15:28;3.97;;;1.38;;
68432;SDS011;55412;51.350;17.056;2023-04-24T13:17:54;4.38;;;1.42;;
68432;SDS011;55412;51.350;17.056;2023-04-24T13:20:20;4.33;;;1.40;;
68432;SDS011;55412;51.350;17.056;2023-04-24T13:22:46;4.40;;;1.60;;
68432;SDS011;55412;51.350;17.056;2023-04-24T13:25:12;5.60;;;1.20;;
68432;SDS011;55412;51.350;17.056;2023-04-24T13:27:41;5.80;;;1.00;;
68432;SDS011;55412;51.350;17.056;2023-04-24T13:30:08;7.17;;;1.30;;
68432;SDS011;55412;51.350;17.056;2023-04-24T13:32:35;2.83;;;0.95;;
68432;SDS011;55412;51.350;17.056;2023-04-24T13:35:01;5.45;;;1.00;;
68432;SDS011;55412;51.350;17.056;2023-04-24T13:37:27;3.20;;;1.00;;
68432;SDS011;55412;51.350;17.056;2023-04-24T13:39:54;3.55;;;0.77;;
68432;SDS011;55412;51.350;17.056;2023-04-24T13:42:20;6.50;;;0.97;;
68432;SDS011;55412;51.350;17.056;2023-04-24T13:44:46;3.88;;;0.60;;
68432;SDS011;55412;51.350;17.056;2023-04-24T13:47:12;2.75;;;0.65;;
68432;SDS011;55412;51.350;17.056;2023-04-24T13:49:38;2.47;;;0.60;;
68432;SDS011;55412;51.350;17.056;2023-04-24T13:52:04;2.50;;;0.70;;
68432;SDS011;55412;51.350;17.056;2023-04-24T13:54:30;3.30;;;0.70;;
68432;SDS011;55412;51.350;17.056;2023-04-24T13:56:57;4.25;;;0.80;;
68432;SDS011;55412;51.350;17.056;2023-04-24T13:59:23;3.95;;;0.90;;
68432;SDS011;55412;51.350;17.056;2023-04-24T14:01:50;5.68;;;1.13;;
68432;SDS011;55412;51.350;17.056;2023-04-24T14:04:16;3.17;;;0.95;;
68432;SDS011;55412;51.350;17.056;2023-04-24T14:06:42;2.90;;;0.67;;
68432;SDS011;55412;51.350;17.056;2023-04-24T14:09:09;3.05;;;0.60;;
68432;SDS011;55412;51.350;17.056;2023-04-24T14:11:35;3.40;;;0.80;;
68432;SDS011;55412;51.350;17.056;2023-04-24T14:14:01;2.08;;;0.60;;
68432;SDS011;55412;51.350;17.056;2023-04-24T14:16:28;2.50;;;0.60;;
68432;SDS011;55412;51.350;17.056;2023-04-24T14:18:55;2.60;;;0.80;;
68432;SDS011;55412;51.350;17.056;2023-04-24T14:21:21;3.90;;;0.68;;
68432;SDS011;55412;51.350;17.056;2023-04-24T14:23:47;2.63;;;0.70;;
68432;SDS011;55412;51.350;17.056;2023-04-24T14:26:13;2.50;;;0.52;;
68432;SDS011;55412;51.350;17.056;2023-04-24T14:28:39;2.25;;;0.52;;
68432;SDS011;55412;51.350;17.056;2023-04-24T14:31:05;2.10;;;0.50;;
68432;SDS011;55412;51.350;17.056;2023-04-24T14:33:31;3.10;;;0.60;;
68432;SDS011;55412;51.350;17.056;2023-04-24T14:35:57;2.70;;;0.60;;
68432;SDS011;55412;51.350;17.056;2023-04-24T14:38:23;4.32;;;0.50;;
68432;SDS011;55412;51.350;17.056;2023-04-24T14:40:49;1.83;;;0.30;;
68432;SDS011;55412;51.350;17.056;2023-04-24T14:43:15;2.08;;;0.32;;
68432;SDS011;55412;51.350;17.056;2023-04-24T14:45:41;1.80;;;0.40;;
68432;SDS011;55412;51.350;17.056;2023-04-24T14:48:07;1.92;;;0.30;;
68432;SDS011;55412;51.350;17.056;2023-04-24T14:50:33;1.60;;;0.28;;